Time;durP1;ratioP1;P1;durP2;ratioP2;P2;SDS_P1;SDS_P2;PMS_P1;PMS_P2;Temp;Humidity;BMP_temperature;BMP_pressure;BME280_temperature;BME280_humidity;BME280_pressure;Samples;Min_cycle;Max_cycle;Signal;HPM_P1;HPM_P2
2024/02/09 00:02:19;;;;;;;9.90;2.25;;;;;;;10.10;100.00;96714.81;5068683;28;20071;-52
2024/02/09 00:04:45;;;;;;;12.20;2.50;;;;;;;10.09;100.00;96712.38;5065863;28;20368;-53
2024/02/09 00:07:11;;;;;;;6.45;1.92;;;;;;;10.04;100.00;96710.41;5071714;28;20035;-52
2024/02/09 00:09:36;;;;;;;9.75;2.58;;;;;;;10.18;100.00;96708.13;5071174;28;20013;-52
2024/02/09 00:12:03;;;;;;;22.17;2.40;;;;;;;10.19;100.00;96696.28;5069563;28;20051;-53
2024/02/09 00:14:29;;;;;;;16.83;2.20;;;;;;;10.43;100.00;96704.97;5071100;28;20016;-54
2024/02/09 00:16:55;;;;;;;10.45;2.03;;;;;;;10.37;100.00;96692.44;5074083;28;20090;-54
2024/02/09 00:19:21;;;;;;;8.00;1.77;;;;;;;10.36;100.00;96703.50;5073955;28;20357;-52
2024/02/09 00:21:47;;;;;;;9.45;3.20;;;;;;;10.28;100.00;96694.78;5073583;28;20028;-52
2024/02/09 00:24:13;;;;;;;7.82;2.20;;;;;;;10.27;100.00;96698.56;5074847;28;20383;-57
2024/02/09 00:26:39;;;;;;;9.70;2.05;;;;;;;10.23;100.00;96702.00;5065838;28;20020;-57
2024/02/09 00:29:05;;;;;;;10.77;2.35;;;;;;;10.19;100.00;96712.50;5068824;28;20028;-57
2024/02/09 00:31:31;;;;;;;8.73;2.05;;;;;;;10.10;100.00;96697.78;5074131;28;20064;-57
2024/02/09 00:33:56;;;;;;;19.35;2.55;;;;;;;10.05;100.00;96690.41;5073673;28;20052;-57
2024/02/09 00:36:22;;;;;;;13.88;2.60;;;;;;;9.98;100.00;96689.81;5065385;28;20461;-57
2024/02/09 00:38:47;;;;;;;11.02;2.00;;;;;;;9.94;100.00;96683.28;5067538;28;20025;-57
2024/02/09 00:41:17;;;;;;;12.52;2.28;;;;;;;9.99;100.00;96669.81;5071256;28;20106;-57
2024/02/09 00:43:42;;;;;;;13.40;1.83;;;;;;;9.92;100.00;96668.38;5068675;28;20036;-58
2024/02/09 00:46:08;;;;;;;11.48;2.70;;;;;;;9.94;100.00;96680.56;5069302;28;20424;-58
2024/02/09 00:48:33;;;;;;;10.68;2.60;;;;;;;9.92;100.00;96681.88;5063060;28;20422;-58
2024/02/09 00:50:59;;;;;;;11.32;2.20;;;;;;;9.85;100.00;96687.47;5070350;28;20060;-58
2024/02/09 00:53:24;;;;;;;11.73;1.92;;;;;;;9.79;100.00;96691.97;5070932;28;20361;-58
2024/02/09 00:55:50;;;;;;;11.55;2.05;;;;;;;9.82;100.00;96679.88;5069255;28;20180;-58
2024/02/09 00:58:15;;;;;;;15.20;2.17;;;;;;;9.81;100.00;96681.75;5070817;28;20043;-58
2024/02/09 01:00:42;;;;;;;16.65;2.67;;;;;;;9.82;100.00;96679.88;5068980;28;20082;-58
2024/02/09 01:03:09;;;;;;;6.55;2.00;;;;;;;9.82;100.00;96685.28;5069557;28;20016;-58
2024/02/09 01:05:34;;;;;;;10.82;2.30;;;;;;;9.80;100.00;96690.13;5067491;28;20380;-58
2024/02/09 01:08:01;;;;;;;11.77;2.20;;;;;;;9.82;100.00;96680.72;5072917;28;20020;-58
2024/02/09 01:10:26;;;;;;;12.52;3.25;;;;;;;9.82;100.00;96687.97;5072879;28;20032;-58
2024/02/09 02:46:25;;;;;;;10.45;2.95;;;;;;;9.08;100.00;96672.09;5070732;28;20056;-54
2024/02/09 03:05:27;;;;;;;16.98;2.95;;;;;;;9.04;100.00;96646.66;5059837;28;20066;-58
2024/02/09 03:07:53;;;;;;;7.25;2.63;;;;;;;9.00;100.00;96647.16;5069309;28;20066;-57
2024/02/09 03:10:19;;;;;;;14.45;2.97;;;;;;;9.09;100.00;96644.88;5064800;28;20565;-58
2024/02/09 03:12:45;;;;;;;7.18;2.70;;;;;;;9.13;100.00;96635.22;5069175;28;20043;-59
2024/02/09 03:15:10;;;;;;;11.60;2.90;;;;;;;9.09;100.00;96620.59;5066716;28;20361;-54
2024/02/09 03:17:38;;;;;;;12.63;3.25;;;;;;;9.13;100.00;96623.59;5065337;28;20050;-54
2024/02/09 03:20:05;;;;;;;12.48;2.80;;;;;;;9.13;100.00;96621.72;5069610;28;20104;-54
2024/02/09 03:22:33;;;;;;;18.48;3.47;;;;;;;9.11;100.00;96615.75;5071135;28;20039;-54
2024/02/09 03:25:01;;;;;;;13.13;2.70;;;;;;;9.03;100.00;96593.78;5061405;28;20028;-54
2024/02/09 03:27:33;;;;;;;14.90;3.22;;;;;;;9.11;100.00;96610.34;5070961;28;20028;-53
2024/02/09 03:30:05;;;;;;;13.50;2.83;;;;;;;9.11;100.00;96604.16;5066667;28;20475;-53
2024/02/09 03:32:32;;;;;;;11.32;2.40;;;;;;;9.16;100.00;96606.91;5070773;28;20098;-53
2024/02/09 03:34:59;;;;;;;8.35;2.92;;;;;;;9.17;100.00;96597.78;5064499;28;20094;-53
2024/02/09 03:37:26;;;;;;;13.80;2.38;;;;;;;9.16;100.00;96594.25;5075606;28;20024;-53
2024/02/09 03:40:02;;;;;;;11.25;2.60;;;;;;;9.15;100.00;96599.91;5069986;28;20046;-55
2024/02/09 03:42:28;;;;;;;10.93;2.50;;;;;;;9.12;100.00;96584.22;5071930;28;20491;-54
2024/02/09 03:44:56;;;;;;;7.20;1.88;;;;;;;9.18;100.00;96583.22;5070473;28;20040;-53
2024/02/09 03:47:24;;;;;;;10.47;2.30;;;;;;;9.20;100.00;96583.78;5066978;28;20048;-54
2024/02/09 03:49:51;;;;;;;7.85;2.00;;;;;;;9.15;100.00;96583.72;5070829;28;20017;-54
2024/02/09 03:52:19;;;;;;;6.90;2.40;;;;;;;9.16;100.00;96585.34;5070109;28;20107;-54
2024/02/09 03:54:45;;;;;;;9.85;2.25;;;;;;;9.24;100.00;96592.19;5072045;28;20028;-54
2024/02/09 03:57:10;;;;;;;7.40;2.05;;;;;;;9.28;100.00;96588.75;5070092;28;20423;-55
2024/02/09 03:59:36;;;;;;;7.10;2.08;;;;;;;9.27;100.00;96576.31;5071118;28;20021;-55
2024/02/09 04:02:04;;;;;;;14.23;2.55;;;;;;;9.36;100.00;96582.09;5074012;28;20037;-54
2024/02/09 04:04:30;;;;;;;8.35;3.67;;;;;;;9.38;100.00;96585.38;5071486;28;20464;-53
2024/02/09 04:06:56;;;;;;;11.10;2.20;;;;;;;9.39;100.00;96579.72;5073358;28;20482;-54
2024/02/09 04:09:21;;;;;;;4.03;2.10;;;;;;;9.49;100.00;96587.13;5074060;28;20016;-53
2024/02/09 04:11:47;;;;;;;7.30;1.67;;;;;;;9.61;100.00;96581.59;5074600;28;20035;-56
2024/02/09 04:14:16;;;;;;;6.03;1.48;;;;;;;9.58;100.00;96582.91;5069080;28;20028;-58
2024/02/09 04:16:42;;;;;;;8.13;1.92;;;;;;;9.61;100.00;96576.19;5067737;28;20380;-57
2024/02/09 04:19:07;;;;;;;7.10;1.70;;;;;;;9.65;100.00;96577.34;5074119;28;20024;-58
2024/02/09 04:21:33;;;;;;;5.00;1.83;;;;;;;9.61;100.00;96568.09;5074586;28;20036;-57
2024/02/09 04:23:58;;;;;;;7.90;1.88;;;;;;;9.63;100.00;96568.66;5066203;28;20056;-57
2024/02/09 04:26:24;;;;;;;7.30;1.73;;;;;;;9.60;100.00;96566.47;5065071;28;20044;-57
2024/02/09 04:28:51;;;;;;;11.07;2.08;;;;;;;9.59;100.00;96572.97;5069217;28;20048;-57
2024/02/09 04:31:16;;;;;;;6.57;1.40;;;;;;;9.61;100.00;96568.09;5071556;28;20100;-58
2024/02/09 04:33:41;;;;;;;6.32;1.67;;;;;;;9.61;100.00;96570.78;5070684;28;20111;-58
2024/02/09 04:36:07;;;;;;;6.43;1.63;;;;;;;9.57;100.00;96565.09;5071514;28;20111;-58
2024/02/09 04:38:34;;;;;;;4.55;1.33;;;;;;;9.62;100.00;96567.03;5069712;28;20361;-57
2024/02/09 04:40:59;;;;;;;8.10;1.63;;;;;;;9.65;100.00;96575.44;5070688;28;20032;-57
2024/02/09 04:43:25;;;;;;;6.55;1.48;;;;;;;9.69;100.00;96567.66;5069301;28;20021;-57
2024/02/09 04:45:51;;;;;;;9.32;1.70;;;;;;;9.73;100.00;96574.19;5068853;28;20398;-57
2024/02/09 04:48:16;;;;;;;8.23;2.42;;;;;;;9.74;100.00;96573.09;5071163;28;20035;-57
2024/02/09 04:50:42;;;;;;;5.18;2.00;;;;;;;9.72;100.00;96567.16;5067522;28;20119;-57
2024/02/09 04:53:07;;;;;;;5.18;1.83;;;;;;;9.69;100.00;96578.44;5071486;28;20099;-57
2024/02/09 04:55:35;;;;;;;9.45;1.98;;;;;;;9.69;100.00;96573.03;5068064;28;20036;-57
2024/02/09 04:58:03;;;;;;;5.85;1.58;;;;;;;9.70;100.00;96577.41;5067312;28;20024;-57
2024/02/09 05:00:28;;;;;;;5.43;0.90;;;;;;;9.73;100.00;96555.28;5067533;28;20032;-57
2024/02/09 05:02:54;;;;;;;6.43;1.42;;;;;;;9.92;100.00;96571.16;5065834;28;20055;-58
2024/02/09 05:05:22;;;;;;;6.07;1.38;;;;;;;9.94;100.00;96552.81;5069803;28;20070;-57
2024/02/09 05:07:48;;;;;;;3.37;1.60;;;;;;;9.90;100.00;96562.47;5068115;28;20044;-57
2024/02/09 05:10:13;;;;;;;4.03;1.20;;;;;;;9.83;100.00;96552.69;5070167;28;20503;-57
2024/02/09 05:12:38;;;;;;;2.22;1.13;;;;;;;9.80;100.00;96553.22;5064017;28;20020;-57
2024/02/09 05:15:04;;;;;;;4.05;1.00;;;;;;;9.82;100.00;96551.06;5065878;28;20039;-57
2024/02/09 05:17:30;;;;;;;4.25;1.23;;;;;;;9.93;100.00;96529.56;5072238;28;20083;-58
2024/02/09 05:19:58;;;;;;;5.78;1.50;;;;;;;9.99;100.00;96532.06;5067411;28;20024;-57
2024/02/09 05:22:24;;;;;;;3.88;1.13;;;;;;;10.00;100.00;96522.88;5064370;28;20029;-57
2024/02/09 05:24:49;;;;;;;3.13;1.00;;;;;;;10.00;100.00;96517.47;5066732;28;20024;-57
2024/02/09 05:27:15;;;;;;;5.22;1.50;;;;;;;10.07;100.00;96517.28;5067751;28;20063;-57
2024/02/09 05:29:40;;;;;;;6.35;1.42;;;;;;;10.09;100.00;96518.66;5071028;28;20032;-57
2024/02/09 05:32:06;;;;;;;4.30;1.15;;;;;;;10.11;100.00;96523.78;5068901;28;20036;-57
2024/02/09 05:34:31;;;;;;;9.40;1.63;;;;;;;10.11;100.00;96515.69;5070137;28;20055;-57
2024/02/09 05:36:57;;;;;;;4.68;1.17;;;;;;;10.13;100.00;96510.84;5065637;28;20028;-57
2024/02/09 05:39:22;;;;;;;2.90;0.90;;;;;;;10.20;100.00;96510.63;5069422;28;20016;-57
2024/02/09 05:41:48;;;;;;;3.60;1.10;;;;;;;10.16;100.00;96513.03;5069580;28;20039;-57
2024/02/09 05:44:14;;;;;;;8.93;2.17;;;;;;;10.21;100.00;96504.16;5070738;28;20028;-57
2024/02/09 05:46:40;;;;;;;3.35;1.33;;;;;;;10.27;100.00;96509.38;5070024;28;20116;-57
2024/02/09 05:49:07;;;;;;;2.20;1.25;;;;;;;10.26;100.00;96517.72;5063369;28;20530;-57
2024/02/09 05:51:33;;;;;;;7.38;1.40;;;;;;;10.27;100.00;96509.38;5063739;28;20042;-57
2024/02/09 05:54:00;;;;;;;2.83;1.00;;;;;;;10.27;100.00;96509.38;5065517;28;20028;-57
2024/02/09 05:56:27;;;;;;;4.18;1.23;;;;;;;10.26;100.00;96507.72;5070252;28;20028;-57
2024/02/09 05:58:56;;;;;;;3.00;1.20;;;;;;;10.24;100.00;96509.03;5068993;28;20012;-57
2024/02/09 06:01:22;;;;;;;;;;;;;;;10.27;100.00;96511.22;5071248;28;20032;-57
2024/02/09 06:03:49;;;;;;;4.15;1.10;;;;;;;10.21;100.00;96515.78;5061721;28;20372;-57
2024/02/09 06:06:20;;;;;;;6.85;1.95;;;;;;;10.16;100.00;96512.22;5066421;28;20388;-57
2024/02/09 06:08:46;;;;;;;3.80;1.33;;;;;;;10.13;100.00;96513.53;5068588;28;20433;-57
2024/02/09 06:11:15;;;;;;;8.13;1.65;;;;;;;10.06;100.00;96507.53;5071853;28;20107;-57
2024/02/09 06:13:44;;;;;;;2.65;1.27;;;;;;;10.15;100.00;96511.41;5065668;28;20031;-57
2024/02/09 06:16:10;;;;;;;2.63;1.00;;;;;;;10.21;100.00;96515.78;5064976;28;20032;-57
2024/02/09 06:18:37;;;;;;;3.33;1.20;;;;;;;10.21;100.00;96504.16;5064195;28;20043;-57
2024/02/09 06:21:03;;;;;;;8.05;1.38;;;;;;;10.25;100.00;96516.91;5070155;28;20025;-57
2024/02/09 06:23:29;;;;;;;4.07;1.20;;;;;;;10.28;100.00;96496.69;5070133;28;20167;-57
2024/02/09 06:25:55;;;;;;;4.05;1.60;;;;;;;10.35;100.00;96516.22;5050934;28;20755;-57
2024/02/09 06:28:21;;;;;;;5.18;1.20;;;;;;;10.33;100.00;96504.03;5059798;28;20025;-57
2024/02/09 06:30:47;;;;;;;2.78;1.38;;;;;;;10.38;100.00;96506.78;5063527;28;20530;-57
2024/02/09 06:33:16;;;;;;;4.00;1.25;;;;;;;10.43;100.00;96510.31;5065813;28;20053;-57
2024/02/09 06:35:43;;;;;;;2.92;1.27;;;;;;;10.46;100.00;96509.81;5063538;28;20047;-57
2024/02/09 06:38:08;;;;;;;4.93;1.88;;;;;;;10.49;100.00;96511.16;5061312;28;20036;-57
2024/02/09 06:40:34;;;;;;;2.80;1.20;;;;;;;10.57;100.00;96496.34;5058138;28;20027;-57
2024/02/09 06:43:00;;;;;;;4.53;1.10;;;;;;;10.51;100.00;96498.22;5063587;28;20506;-57
2024/02/09 06:45:25;;;;;;;6.00;1.45;;;;;;;10.51;100.00;96509.84;5054594;28;20036;-55
2024/02/09 06:47:50;;;;;;;3.22;1.20;;;;;;;10.57;100.00;96510.69;5053310;28;20048;-56
2024/02/09 06:50:19;;;;;;;1.80;0.80;;;;;;;10.57;100.00;96509.88;5053517;28;20028;-57
2024/02/09 06:52:47;;;;;;;3.63;1.00;;;;;;;10.50;100.00;96515.50;5051902;28;20422;-57
2024/02/09 06:55:14;;;;;;;3.13;1.08;;;;;;;10.43;100.00;96517.63;5051201;28;20036;-55
2024/02/09 06:57:45;;;;;;;4.10;0.88;;;;;;;10.43;100.00;96523.03;5063991;28;20428;-55
2024/02/09 07:00:16;;;;;;;1.90;0.88;;;;;;;10.49;100.00;96520.09;5067846;28;20040;-62
2024/02/09 07:02:44;;;;;;;2.38;1.00;;;;;;;10.55;100.00;96522.84;5068887;28;20032;-66
2024/02/09 07:05:14;;;;;;;2.95;1.00;;;;;;;10.61;100.00;96519.09;5058886;28;20360;-66
2024/02/09 07:07:47;;;;;;;2.30;1.05;;;;;;;10.58;100.00;96514.19;5066806;28;20060;-64
2024/02/09 07:10:14;;;;;;;2.22;0.90;;;;;;;10.67;100.00;96529.69;5062688;28;20045;-64
2024/02/09 07:12:42;;;;;;;2.25;1.10;;;;;;;10.61;100.00;96536.16;5065816;28;20408;-64
2024/02/09 07:15:08;;;;;;;2.33;1.05;;;;;;;10.46;100.00;96522.50;5063156;28;20484;-64
2024/02/09 07:17:35;;;;;;;2.80;1.23;;;;;;;10.56;100.00;96544.22;5065083;28;20426;-64
2024/02/09 07:20:03;;;;;;;4.22;1.00;;;;;;;10.58;100.00;96543.94;5074139;28;20028;-64
2024/02/09 07:22:29;;;;;;;3.20;1.00;;;;;;;10.59;100.00;96543.69;5072289;28;20501;-64
2024/02/09 07:24:55;;;;;;;1.02;0.60;;;;;;;10.50;100.00;96535.22;5067005;28;20029;-64
2024/02/09 07:27:21;;;;;;;2.60;0.70;;;;;;;10.53;100.00;96547.41;5069787;28;20380;-64
2024/02/09 07:29:47;;;;;;;0.98;0.60;;;;;;;10.54;100.00;96546.34;5070047;28;20380;-64
2024/02/09 07:32:13;;;;;;;1.77;0.60;;;;;;;10.55;100.00;96531.75;5070989;28;20032;-64
2024/02/09 07:34:39;;;;;;;2.17;0.88;;;;;;;10.55;100.00;96542.56;5067850;28;20474;-64
2024/02/09 07:37:04;;;;;;;1.38;0.65;;;;;;;10.60;100.00;96539.91;5072844;28;20108;-64
2024/02/09 07:39:32;;;;;;;4.80;1.20;;;;;;;10.61;100.00;96538.00;5066584;28;20028;-65
2024/02/09 07:41:58;;;;;;;1.85;0.73;;;;;;;10.68;100.00;96534.00;5066683;28;20028;-64
2024/02/09 07:44:25;;;;;;;3.83;1.00;;;;;;;10.70;100.00;96528.34;5074088;28;20029;-64
2024/02/09 07:46:53;;;;;;;2.03;0.90;;;;;;;10.70;100.00;96518.34;5070470;28;20022;-64
2024/02/09 07:49:19;;;;;;;2.67;1.00;;;;;;;10.74;100.00;96524.88;5069964;28;20020;-64
2024/02/09 07:51:45;;;;;;;2.55;1.30;;;;;;;10.70;100.00;96504.81;5071346;28;20028;-64
2024/02/09 07:54:10;;;;;;;3.70;1.30;;;;;;;10.78;100.00;96521.66;5066086;28;20032;-64
2024/02/09 07:56:36;;;;;;;2.10;0.80;;;;;;;10.80;100.00;96511.38;5068503;28;20063;-64
2024/02/09 07:59:01;;;;;;;2.53;1.02;;;;;;;10.73;100.00;96485.38;5072259;28;20111;-64
2024/02/09 08:01:29;;;;;;;4.72;1.00;;;;;;;10.81;100.00;96505.69;5065064;28;20470;-64
2024/02/09 08:03:57;;;;;;;4.15;1.23;;;;;;;10.88;100.00;96513.59;5063981;28;21003;-63
2024/02/09 08:06:23;;;;;;;4.60;1.35;;;;;;;10.91;100.00;96502.25;5063586;28;20032;-64
2024/02/09 08:08:52;;;;;;;3.38;0.98;;;;;;;10.88;100.00;96506.28;5064402;28;20020;-64
2024/02/09 08:11:22;;;;;;;4.10;1.15;;;;;;;10.90;100.00;96506.03;5067045;28;20099;-63
2024/02/09 08:13:50;;;;;;;3.30;1.02;;;;;;;10.87;100.00;96482.19;5064064;28;21160;-64
2024/02/09 08:16:17;;;;;;;5.53;0.95;;;;;;;11.02;100.00;96497.69;5064547;28;20025;-63
2024/02/09 08:18:42;;;;;;;6.53;0.98;;;;;;;11.04;100.00;96499.06;5063974;28;20520;-64
2024/02/09 08:21:08;;;;;;;3.83;0.80;;;;;;;11.10;100.00;96499.91;5063020;28;20042;-63
2024/02/09 08:23:33;;;;;;;4.72;1.17;;;;;;;11.15;100.00;96502.63;5063600;28;20120;-63
2024/02/09 08:25:59;;;;;;;3.83;1.10;;;;;;;11.30;100.00;96499.19;5066124;28;20443;-63
2024/02/09 08:28:25;;;;;;;4.40;1.20;;;;;;;11.32;100.00;96497.03;5068043;28;20467;-64
2024/02/09 08:30:51;;;;;;;3.83;1.35;;;;;;;11.35;100.00;96489.19;5069775;28;20042;-63
2024/02/09 08:33:16;;;;;;;3.60;1.33;;;;;;;11.48;100.00;96487.09;5063365;28;20391;-63
2024/02/09 08:35:41;;;;;;;3.50;1.25;;;;;;;11.57;100.00;96489.00;5062653;28;20040;-64
2024/02/09 08:38:10;;;;;;;2.33;0.88;;;;;;;11.75;100.00;96493.09;5068063;28;20039;-63
2024/02/09 08:40:35;;;;;;;2.00;0.70;;;;;;;11.88;100.00;96482.88;5071897;28;20499;-63
2024/02/09 08:43:00;;;;;;;6.90;1.05;;;;;;;12.00;100.00;96484.25;5072305;28;20028;-63
2024/02/09 08:45:27;;;;;;;2.78;0.90;;;;;;;12.05;100.00;96480.69;5067105;28;20107;-64
2024/02/09 08:47:53;;;;;;;5.57;1.00;;;;;;;12.05;100.00;96489.66;5074414;28;20417;-63
2024/02/09 08:50:18;;;;;;;1.92;0.68;;;;;;;12.05;100.00;96481.53;5071907;28;20021;-64
2024/02/09 08:52:44;;;;;;;2.70;0.75;;;;;;;12.15;100.00;96477.19;5067861;28;20028;-64
2024/02/09 08:55:10;;;;;;;2.30;1.05;;;;;;;12.24;100.00;96481.81;5069281;28;20476;-64
2024/02/09 08:57:35;;;;;;;4.72;0.90;;;;;;;12.19;100.00;96479.09;5067582;28;20028;-64
2024/02/09 09:00:01;;;;;;;2.70;0.80;;;;;;;12.35;100.00;96473.69;5073462;28;20097;-64
2024/02/09 09:02:26;;;;;;;1.92;0.68;;;;;;;12.34;100.00;96475.59;5070971;28;20166;-64
2024/02/09 09:04:52;;;;;;;1.65;0.80;;;;;;;12.22;100.00;96485.88;5067009;28;20029;-64
2024/02/09 09:07:18;;;;;;;3.47;1.00;;;;;;;12.46;100.00;96470.69;5064924;28;20029;-64
2024/02/09 09:09:43;;;;;;;2.58;0.90;;;;;;;12.33;100.00;96484.78;5066433;28;20016;-66
2024/02/09 09:12:09;;;;;;;3.30;1.38;;;;;;;12.40;100.00;96474.50;5069134;28;20062;-65
2024/02/09 09:14:36;;;;;;;2.00;0.90;;;;;;;12.58;100.00;96477.75;5060053;28;20047;-65
2024/02/09 09:17:02;;;;;;;4.63;0.85;;;;;;;12.71;100.00;96474.47;5058374;28;20032;-65
2024/02/09 09:19:28;;;;;;;5.15;0.90;;;;;;;12.90;100.00;96471.97;5062424;28;20134;-65
2024/02/09 09:21:53;;;;;;;2.40;0.75;;;;;;;12.88;100.00;96466.81;5057288;28;20028;-65
2024/02/09 09:24:19;;;;;;;2.13;0.90;;;;;;;12.81;100.00;96452.72;5061650;28;20033;-65
2024/02/09 09:26:45;;;;;;;1.95;0.88;;;;;;;12.93;100.00;96472.22;5058969;28;20389;-65
2024/02/09 09:29:10;;;;;;;5.88;0.82;;;;;;;12.84;100.00;96464.94;5062537;28;20029;-65
2024/02/09 09:31:36;;;;;;;2.47;1.38;;;;;;;12.85;100.00;96453.78;5058362;28;20033;-65
2024/02/09 09:34:01;;;;;;;1.88;1.00;;;;;;;12.89;100.00;96463.03;5061350;28;20480;-65
2024/02/09 09:36:26;;;;;;;3.50;0.90;;;;;;;12.86;100.00;96454.59;5059565;28;20479;-65
2024/02/09 09:38:53;;;;;;;4.75;0.85;;;;;;;12.96;100.00;96465.44;5056128;28;20021;-66
2024/02/09 09:41:19;;;;;;;4.38;0.95;;;;;;;13.12;100.00;96453.44;5059963;28;20147;-65
2024/02/09 09:43:46;;;;;;;4.82;0.75;;;;;;;13.23;100.00;96456.09;5064192;28;20055;-64
2024/02/09 09:46:15;;;;;;;2.60;1.20;;;;;;;13.31;100.00;96450.16;5061449;28;20037;-64
2024/02/09 09:48:41;;;;;;;6.35;1.40;;;;;;;13.55;100.00;96448.38;5062959;28;20111;-63
2024/02/09 09:51:09;;;;;;;2.75;0.77;;;;;;;13.30;100.00;96467.50;5061400;28;20399;-63
2024/02/09 09:53:39;;;;;;;3.38;0.80;;;;;;;13.28;100.00;96440.66;5059877;28;20035;-64
2024/02/09 09:56:08;;;;;;;3.95;1.00;;;;;;;13.47;100.00;96454.41;5062493;28;20542;-63
2024/02/09 09:58:37;;;;;;;3.70;1.10;;;;;;;13.44;100.00;96437.84;5058294;28;20072;-63
2024/02/09 10:01:08;;;;;;;4.25;1.27;;;;;;;13.37;100.00;96444.41;5060386;28;20166;-63
2024/02/09 10:03:37;;;;;;;4.38;1.10;;;;;;;13.64;100.00;96439.63;5059596;28;20032;-65
2024/02/09 10:06:04;;;;;;;;;;;;;;;13.58;100.00;96433.44;5062127;28;20036;-65
2024/02/09 10:08:31;;;;;;;2.85;1.05;;;;;;;13.56;100.00;96433.69;5064678;28;19916;-65
2024/02/09 10:10:57;;;;;;;2.45;1.00;;;;;;;13.50;100.00;96437.53;5055245;28;20028;-65
2024/02/09 10:13:24;;;;;;;1.45;0.60;;;;;;;13.29;100.00;96439.56;5052551;28;20020;-65
2024/02/09 10:15:55;;;;;;;2.22;0.95;;;;;;;13.13;100.00;96427.13;5061850;28;21274;-65
2024/02/09 10:18:21;;;;;;;3.15;1.00;;;;;;;13.34;100.00;96436.00;5060965;28;20024;-65
2024/02/09 10:20:48;;;;;;;4.53;1.20;;;;;;;13.27;100.00;96420.00;5060426;28;20024;-65
2024/02/09 10:23:15;;;;;;;4.45;1.20;;;;;;;13.31;100.00;96426.50;5060998;28;20365;-65
2024/02/09 10:25:42;;;;;;;1.88;1.15;;;;;;;13.25;100.00;96424.88;5062464;28;20024;-64
2024/02/09 10:28:09;;;;;;;4.35;1.02;;;;;;;13.37;100.00;96432.72;5060482;28;20035;-64
2024/02/09 10:30:35;;;;;;;2.03;0.70;;;;;;;13.34;100.00;96417.00;5061971;28;20103;-64
2024/02/09 10:33:01;;;;;;;3.00;0.77;;;;;;;13.33;100.00;96426.22;5058468;28;20043;-65
2024/02/09 10:35:27;;;;;;;4.75;1.00;;;;;;;13.21;100.00;96423.00;5061636;28;20391;-65
2024/02/09 10:37:57;;;;;;;4.75;0.90;;;;;;;13.12;100.00;96420.03;5070209;28;20032;-64
2024/02/09 10:40:23;;;;;;;2.78;0.90;;;;;;;12.99;100.00;96410.59;5071280;28;20028;-64
2024/02/09 10:42:50;;;;;;;3.67;1.10;;;;;;;13.03;100.00;96429.88;5063179;28;20036;-64
2024/02/09 10:45:16;;;;;;;2.70;1.10;;;;;;;12.96;100.00;96410.34;5064990;28;20082;-64
2024/02/09 10:47:44;;;;;;;5.88;1.02;;;;;;;12.99;100.00;96420.63;5065453;28;20024;-64
2024/02/09 10:50:11;;;;;;;4.10;1.25;;;;;;;13.06;100.00;96421.16;5067097;28;20024;-64
2024/02/09 10:52:43;;;;;;;5.70;1.15;;;;;;;13.12;100.00;96420.84;5068988;28;20032;-65
2024/02/09 10:55:13;;;;;;;5.32;1.10;;;;;;;13.18;100.00;96423.53;5065296;28;20028;-64
2024/02/09 10:57:39;;;;;;;5.70;1.30;;;;;;;13.29;100.00;96417.81;5064823;28;20458;-62
2024/02/09 11:00:09;;;;;;;2.63;1.17;;;;;;;13.49;100.00;96405.22;5068473;28;20024;-64
2024/02/09 11:02:36;;;;;;;5.50;1.42;;;;;;;13.62;100.00;96403.78;5058551;28;20384;-64
2024/02/09 11:05:03;;;;;;;6.43;1.10;;;;;;;13.70;100.00;96412.16;5064069;28;20119;-55
2024/02/09 11:07:30;;;;;;;5.68;1.50;;;;;;;13.67;100.00;96404.56;5068364;28;20546;-55
2024/02/09 11:09:56;;;;;;;2.50;0.93;;;;;;;13.80;100.00;96398.47;5072658;28;20033;-55
2024/02/09 11:12:21;;;;;;;5.05;0.75;;;;;;;13.64;100.00;96388.03;5064939;28;20024;-55
2024/02/09 11:14:47;;;;;;;2.47;1.20;;;;;;;13.63;100.00;96381.78;5064133;28;20384;-55
2024/02/09 11:17:18;;;;;;;2.92;1.10;;;;;;;13.86;100.00;96388.41;5072164;28;20036;-55
2024/02/09 11:19:44;;;;;;;3.00;1.05;;;;;;;14.03;100.00;96383.34;5065073;28;20033;-56
2024/02/09 11:22:11;;;;;;;4.03;0.90;;;;;;;14.08;100.00;96387.16;5069848;28;20074;-56
2024/02/09 11:24:37;;;;;;;4.72;1.25;;;;;;;14.12;100.00;96380.03;5065716;28;20029;-55
2024/02/09 11:27:04;;;;;;;6.03;1.45;;;;;;;14.27;100.00;96379.09;5061722;28;20021;-55
2024/02/09 11:29:32;;;;;;;5.57;1.40;;;;;;;14.32;100.00;96377.13;5069896;28;20488;-55
2024/02/09 11:32:05;;;;;;;3.85;1.02;;;;;;;14.39;100.00;96374.06;5067824;28;20353;-55
2024/02/09 11:34:34;;;;;;;6.18;1.45;;;;;;;14.37;100.00;96379.00;5065128;28;20024;-55
2024/02/09 11:37:00;;;;;;;3.13;1.50;;;;;;;14.53;100.00;96376.94;5069424;28;20059;-55
2024/02/09 11:39:33;;;;;;;4.55;1.20;;;;;;;14.61;100.00;96373.59;5065303;28;20505;-55
2024/02/09 11:42:02;;;;;;;2.97;0.95;;;;;;;14.59;100.00;96365.75;5066843;28;20039;-64
2024/02/09 11:44:28;;;;;;;5.47;1.00;;;;;;;14.65;100.00;96364.56;5066224;28;20103;-64
2024/02/09 11:46:54;;;;;;;4.03;1.10;;;;;;;14.62;100.00;96354.28;5068364;28;20028;-63
2024/02/09 11:49:20;;;;;;;2.95;1.25;;;;;;;14.78;100.00;96354.09;5069509;28;20048;-64
2024/02/09 11:51:46;;;;;;;3.83;1.05;;;;;;;14.92;100.00;96363.16;5068855;28;20039;-63
2024/02/09 11:54:13;;;;;;;2.25;0.93;;;;;;;14.79;100.00;96331.22;5066531;28;20046;-64
2024/02/09 11:56:40;;;;;;;4.05;0.85;;;;;;;14.69;100.00;96352.00;5062923;28;20451;-63
2024/02/09 11:59:06;;;;;;;5.50;1.08;;;;;;;14.67;100.00;96362.38;5068896;28;20033;-62
2024/02/09 12:01:32;;;;;;;4.53;1.15;;;;;;;14.46;100.00;96366.38;5067071;28;20081;-64
2024/02/09 12:03:58;;;;;;;4.03;1.10;;;;;;;14.27;100.00;96360.84;5069113;28;20525;-63
2024/02/09 12:06:24;;;;;;;4.68;0.80;;;;;;;14.14;100.00;96362.31;5061395;28;20024;-64
2024/02/09 12:08:53;;;;;;;3.38;1.00;;;;;;;14.13;100.00;96349.84;5074697;28;20016;-64
2024/02/09 12:11:22;;;;;;;2.70;1.00;;;;;;;14.08;100.00;96355.31;5065640;28;20083;-63
2024/02/09 12:13:47;;;;;;;3.58;0.80;;;;;;;14.08;100.00;96360.75;5072645;28;20391;-63
2024/02/09 12:16:16;;;;;;;2.22;0.80;;;;;;;14.04;100.00;96343.38;5069416;28;20039;-63
2024/02/09 12:18:44;;;;;;;1.65;0.85;;;;;;;13.90;100.00;96332.38;5070606;28;20087;-63
2024/02/09 12:21:09;;;;;;;2.53;1.00;;;;;;;13.93;100.00;96347.31;5071902;28;20431;-63
2024/02/09 12:23:35;;;;;;;3.33;1.20;;;;;;;13.75;100.00;96344.19;5071086;28;20021;-63
2024/02/09 12:26:05;;;;;;;3.85;1.55;;;;;;;13.78;100.00;96346.34;5068364;28;20017;-63
2024/02/09 12:28:33;;;;;;;4.05;0.98;;;;;;;13.75;100.00;96349.63;5069152;28;20020;-64
2024/02/09 12:30:58;;;;;;;5.07;1.13;;;;;;;13.75;100.00;96354.22;5072271;28;20473;-63
2024/02/09 12:33:24;;;;;;;3.53;1.10;;;;;;;13.61;100.00;96340.50;5065411;28;20089;-64
2024/02/09 12:36:20;;;;;;;3.15;1.05;;;;;;;13.61;100.00;96340.50;5067403;28;20035;-63
2024/02/09 12:38:55;;;;;;;4.63;0.93;;;;;;;13.49;100.00;96338.16;5066104;28;20037;-63
2024/02/09 12:41:21;;;;;;;4.72;1.40;;;;;;;13.45;100.00;96336.28;5071552;28;20077;-63
2024/02/09 12:44:04;;;;;;;6.40;1.42;;;;;;;13.45;100.00;96331.66;5069017;28;20423;-62
2024/02/09 12:46:30;;;;;;;4.00;1.40;;;;;;;13.50;100.00;96334.31;5069018;28;20060;-62
2024/02/09 12:48:55;;;;;;;5.47;1.92;;;;;;;13.47;100.00;96339.53;5065700;28;20048;-63
2024/02/09 12:51:32;;;;;;;9.13;1.63;;;;;;;13.36;100.00;96312.44;5073095;28;20721;-63
2024/02/09 12:53:58;;;;;;;5.80;1.50;;;;;;;13.41;100.00;96335.19;5068581;28;20525;-65
2024/02/09 12:56:24;;;;;;;6.25;1.63;;;;;;;13.24;100.00;96333.66;5066715;28;20025;-64
2024/02/09 12:58:51;;;;;;;7.78;2.00;;;;;;;13.06;100.00;96335.09;5072949;28;20032;-65
2024/02/09 13:01:18;;;;;;;3.65;1.88;;;;;;;12.94;100.00;96326.47;5070890;28;20027;-64
2024/02/09 13:03:44;;;;;;;4.90;1.60;;;;;;;12.83;100.00;96323.00;5069536;28;20032;-63
2024/02/09 13:06:09;;;;;;;4.95;2.30;;;;;;;12.88;100.00;96328.41;5069205;28;20044;-63
2024/02/09 13:08:36;;;;;;;7.53;1.85;;;;;;;12.89;100.00;96324.63;5066254;28;20020;-63
2024/02/09 13:11:05;;;;;;;3.28;1.80;;;;;;;12.90;100.00;96331.66;5068422;28;20107;-62
2024/02/09 13:13:31;;;;;;;3.78;1.23;;;;;;;12.78;100.00;96333.88;5069809;28;20024;-63
2024/02/09 13:15:56;;;;;;;3.63;1.20;;;;;;;12.63;100.00;96342.91;5070453;28;20388;-63